Dannelly, Alabama
Current Conditions -  °F | °C
As of 1:58 PM on Sunday 25 Jan 2015 (Local Time) from KMXF Reporting Station
Clear Clear  
Wind Chill: 63°   Ceiling: Unl
Heat Index: 63°   Visibility: 10mi
Dew Point: 36°   Wind: 18mph
Humidity: 36%   Direction: 190°S
Pressure: 29.79"   Gusts: 24mph
Location:  32.3488°N, 86.4016°W
Report Text: KMXF 251958Z AUTO 19016G21KT 10SM CLR 17/02 A2979 RMK AO2 SLP091 T01740023
Loading
Personal Weather Stations






























Interactive Weather Map New forecast layout! Learn more

10-Day Weather Forecast

Advertisements
Track Severe Weather on mobile